AVA9205 SKCL-SKBO
Flight info
| Callsign | AVA9205 |
|---|---|
| Flight time | 0h 34m |
| Altitude | 23000 |
| Route | ULQ1K ULQ W1 TOLIM TOLIM5W |
| Aircraft | A320/M-SDE3FGHIRWY/LB1 |
Departure
| Time | 2026-04-26 19:43 |
|---|---|
| Airport | Alfonso Bonilla Aragon International Airport (SKCL) |
Arrival
| Time | 2026-04-26 20:17 |
|---|---|
| Airport | El Dorado International Airport (SKBO) |
| Time | Latitude | Longitude | Altitude | Speed | Heading |
|---|---|---|---|---|---|
| 2026-04-26 19:30 | 3.53855 | -76.38740 | 3163 ft | 0 kts | 201° |
| 2026-04-26 19:36 | 3.53858 | -76.38739 | 3163 ft | 3 kts | 201° |
| 2026-04-26 19:36 | 3.53892 | -76.38730 | 3165 ft | 4 kts | 178° |
| 2026-04-26 19:36 | 3.53914 | -76.38736 | 3163 ft | 4 kts | 124° |
| 2026-04-26 19:37 | 3.53919 | -76.38748 | 3163 ft | 1 kts | 95° |
| 2026-04-26 19:37 | 3.53919 | -76.38749 | 3163 ft | 0 kts | 95° |
| 2026-04-26 19:38 | 3.53919 | -76.38741 | 3163 ft | 5 kts | 95° |
| 2026-04-26 19:39 | 3.53910 | -76.38679 | 3163 ft | 10 kts | 107° |
| 2026-04-26 19:39 | 3.53871 | -76.38637 | 3163 ft | 7 kts | 144° |
| 2026-04-26 19:39 | 3.53834 | -76.38610 | 3163 ft | 6 kts | 144° |
| 2026-04-26 19:39 | 3.53807 | -76.38590 | 3165 ft | 4 kts | 144° |
| 2026-04-26 19:40 | 3.53789 | -76.38578 | 3163 ft | 4 kts | 145° |
| 2026-04-26 19:40 | 3.53734 | -76.38541 | 3164 ft | 16 kts | 146° |
| 2026-04-26 19:40 | 3.53627 | -76.38466 | 3163 ft | 18 kts | 146° |
| 2026-04-26 19:40 | 3.53516 | -76.38471 | 3161 ft | 16 kts | 187° |
| 2026-04-26 19:41 | 3.53409 | -76.38488 | 3161 ft | 15 kts | 189° |
| 2026-04-26 19:41 | 3.53303 | -76.38507 | 3161 ft | 16 kts | 189° |
| 2026-04-26 19:41 | 3.53188 | -76.38527 | 3161 ft | 19 kts | 190° |
| 2026-04-26 19:41 | 3.53102 | -76.38542 | 3162 ft | 19 kts | 189° |
| 2026-04-26 19:42 | 3.52959 | -76.38515 | 3162 ft | 16 kts | 109° |
| 2026-04-26 19:42 | 3.53015 | -76.38423 | 3160 ft | 21 kts | 40° |
| 2026-04-26 19:42 | 3.53258 | -76.38350 | 3159 ft | 65 kts | 9° |
| 2026-04-26 19:42 | 3.53924 | -76.38235 | 3167 ft | 127 kts | 9° |
| 2026-04-26 19:43 | 3.54971 | -76.38053 | 3193 ft | 173 kts | 10° |
| 2026-04-26 19:43 | 3.56138 | -76.37851 | 3852 ft | 170 kts | 10° |
| 2026-04-26 19:43 | 3.57295 | -76.37651 | 4580 ft | 169 kts | 9° |
| 2026-04-26 19:43 | 3.58473 | -76.37449 | 5158 ft | 179 kts | 10° |
| 2026-04-26 19:44 | 3.59768 | -76.37223 | 5446 ft | 200 kts | 10° |
| 2026-04-26 19:44 | 3.61208 | -76.36975 | 5701 ft | 218 kts | 10° |
| 2026-04-26 19:44 | 3.62724 | -76.36711 | 6237 ft | 223 kts | 10° |
| 2026-04-26 19:44 | 3.64267 | -76.36401 | 6803 ft | 230 kts | 15° |
| 2026-04-26 19:45 | 3.65862 | -76.35949 | 7115 ft | 253 kts | 17° |
| 2026-04-26 19:45 | 3.67616 | -76.35401 | 7410 ft | 275 kts | 18° |
| 2026-04-26 19:45 | 3.69507 | -76.34796 | 8008 ft | 286 kts | 18° |
| 2026-04-26 19:45 | 3.71391 | -76.34191 | 8735 ft | 290 kts | 18° |
| 2026-04-26 19:46 | 3.73325 | -76.33572 | 9458 ft | 294 kts | 18° |
| 2026-04-26 19:46 | 3.75285 | -76.32948 | 10176 ft | 298 kts | 18° |
| 2026-04-26 19:46 | 3.77340 | -76.32297 | 10387 ft | 321 kts | 18° |
| 2026-04-26 19:46 | 3.79409 | -76.31325 | 10684 ft | 337 kts | 36° |
| 2026-04-26 19:47 | 3.81034 | -76.29616 | 11236 ft | 344 kts | 56° |
| 2026-04-26 19:47 | 3.81467 | -76.28962 | 11453 ft | 345 kts | 57° |
| 2026-04-26 19:47 | 3.83669 | -76.25543 | 12585 ft | 351 kts | 57° |
| 2026-04-26 19:47 | 3.84982 | -76.23472 | 13259 ft | 355 kts | 58° |
| 2026-04-26 19:48 | 3.86310 | -76.21372 | 13902 ft | 358 kts | 58° |
| 2026-04-26 19:48 | 3.87652 | -76.19251 | 14518 ft | 362 kts | 57° |
| 2026-04-26 19:48 | 3.89008 | -76.17112 | 15137 ft | 365 kts | 57° |
| 2026-04-26 19:48 | 3.90379 | -76.14958 | 15748 ft | 368 kts | 57° |
| 2026-04-26 19:49 | 3.91768 | -76.12780 | 16323 ft | 372 kts | 57° |
| 2026-04-26 19:49 | 3.93169 | -76.10586 | 16901 ft | 376 kts | 57° |
| 2026-04-26 19:49 | 3.94565 | -76.08399 | 17456 ft | 379 kts | 57° |
| 2026-04-26 19:49 | 3.95991 | -76.06166 | 18000 ft | 383 kts | 57° |
| 2026-04-26 19:50 | 3.97428 | -76.03914 | 18538 ft | 386 kts | 57° |
| 2026-04-26 19:50 | 3.98876 | -76.01637 | 19077 ft | 388 kts | 58° |
| 2026-04-26 19:50 | 4.00330 | -75.99347 | 19595 ft | 392 kts | 58° |
| 2026-04-26 19:50 | 4.01800 | -75.97035 | 20116 ft | 394 kts | 58° |
| 2026-04-26 19:51 | 4.03284 | -75.94706 | 20636 ft | 397 kts | 58° |
| 2026-04-26 19:51 | 4.04776 | -75.92366 | 20917 ft | 398 kts | 58° |
| 2026-04-26 19:51 | 4.06255 | -75.90049 | 20993 ft | 394 kts | 58° |
| 2026-04-26 19:51 | 4.07765 | -75.87681 | 20997 ft | 411 kts | 58° |
| 2026-04-26 19:52 | 4.09332 | -75.85221 | 20982 ft | 426 kts | 58° |
| 2026-04-26 19:52 | 4.10945 | -75.82690 | 20980 ft | 433 kts | 58° |
| 2026-04-26 19:52 | 4.12550 | -75.80169 | 20986 ft | 435 kts | 58° |
| 2026-04-26 19:52 | 4.14181 | -75.77606 | 20991 ft | 436 kts | 58° |
| 2026-04-26 19:53 | 4.15813 | -75.75041 | 20978 ft | 436 kts | 58° |
| 2026-04-26 19:53 | 4.17446 | -75.72475 | 20982 ft | 437 kts | 58° |
| 2026-04-26 19:53 | 4.19079 | -75.69911 | 20996 ft | 437 kts | 58° |
| 2026-04-26 19:53 | 4.20713 | -75.67345 | 21014 ft | 437 kts | 58° |
| 2026-04-26 19:54 | 4.22346 | -75.64781 | 20996 ft | 437 kts | 58° |
| 2026-04-26 19:54 | 4.23985 | -75.62207 | 20996 ft | 438 kts | 58° |
| 2026-04-26 19:54 | 4.25625 | -75.59628 | 21005 ft | 437 kts | 58° |
| 2026-04-26 19:54 | 4.27261 | -75.57057 | 21017 ft | 437 kts | 58° |
| 2026-04-26 19:55 | 4.28897 | -75.54485 | 21013 ft | 438 kts | 58° |
| 2026-04-26 19:55 | 4.30531 | -75.51917 | 21007 ft | 438 kts | 58° |
| 2026-04-26 19:55 | 4.32167 | -75.49346 | 20982 ft | 438 kts | 58° |
| 2026-04-26 19:55 | 4.33808 | -75.46767 | 20981 ft | 439 kts | 58° |
| 2026-04-26 19:56 | 4.35452 | -75.44182 | 20965 ft | 440 kts | 58° |
| 2026-04-26 19:56 | 4.37096 | -75.41593 | 20958 ft | 441 kts | 58° |
| 2026-04-26 19:56 | 4.38744 | -75.38997 | 20968 ft | 441 kts | 58° |
| 2026-04-26 19:56 | 4.39834 | -75.37281 | 20985 ft | 442 kts | 58° |
| 2026-04-26 19:57 | 4.41488 | -75.34676 | 20977 ft | 443 kts | 58° |
| 2026-04-26 19:57 | 4.43145 | -75.32067 | 20974 ft | 443 kts | 58° |
| 2026-04-26 19:57 | 4.44797 | -75.29467 | 20973 ft | 443 kts | 58° |
| 2026-04-26 19:57 | 4.46453 | -75.26858 | 20976 ft | 444 kts | 58° |
| 2026-04-26 19:58 | 4.48110 | -75.24246 | 20978 ft | 444 kts | 58° |
| 2026-04-26 19:58 | 4.49767 | -75.21638 | 20979 ft | 444 kts | 57° |
| 2026-04-26 19:58 | 4.51430 | -75.19029 | 20981 ft | 444 kts | 57° |
| 2026-04-26 19:58 | 4.53099 | -75.16412 | 20985 ft | 445 kts | 57° |
| 2026-04-26 19:59 | 4.54767 | -75.13799 | 20988 ft | 445 kts | 57° |
| 2026-04-26 19:59 | 4.56433 | -75.11185 | 20989 ft | 445 kts | 57° |
| 2026-04-26 19:59 | 4.58096 | -75.08568 | 20990 ft | 445 kts | 58° |
| 2026-04-26 19:59 | 4.59756 | -75.05946 | 20988 ft | 445 kts | 58° |
| 2026-04-26 20:00 | 4.61412 | -75.03329 | 20985 ft | 445 kts | 57° |
| 2026-04-26 20:00 | 4.63073 | -75.00707 | 20948 ft | 441 kts | 57° |
| 2026-04-26 20:00 | 4.64649 | -74.98222 | 20707 ft | 414 kts | 57° |
| 2026-04-26 20:00 | 4.66169 | -74.95827 | 20380 ft | 392 kts | 57° |
| 2026-04-26 20:01 | 4.67616 | -74.93548 | 19690 ft | 382 kts | 57° |
| 2026-04-26 20:01 | 4.69019 | -74.91339 | 19224 ft | 372 kts | 57° |
| 2026-04-26 20:01 | 4.70388 | -74.89185 | 18760 ft | 370 kts | 57° |
| 2026-04-26 20:01 | 4.71769 | -74.87014 | 18288 ft | 368 kts | 57° |
| 2026-04-26 20:02 | 4.73138 | -74.84856 | 17828 ft | 366 kts | 57° |
| 2026-04-26 20:02 | 4.74507 | -74.82698 | 17149 ft | 370 kts | 57° |
| 2026-04-26 20:02 | 4.75892 | -74.80516 | 16756 ft | 366 kts | 57° |
| 2026-04-26 20:02 | 4.76753 | -74.79087 | 16690 ft | 358 kts | 63° |
| 2026-04-26 20:03 | 4.77983 | -74.76068 | 16541 ft | 343 kts | 69° |
| 2026-04-26 20:03 | 4.78827 | -74.73867 | 16348 ft | 334 kts | 69° |
| 2026-04-26 20:03 | 4.79657 | -74.71710 | 16109 ft | 330 kts | 69° |
| 2026-04-26 20:03 | 4.80484 | -74.69567 | 15846 ft | 327 kts | 69° |
| 2026-04-26 20:04 | 4.81303 | -74.67444 | 15653 ft | 324 kts | 69° |
| 2026-04-26 20:04 | 4.82116 | -74.65334 | 15655 ft | 325 kts | 69° |
| 2026-04-26 20:04 | 4.82931 | -74.63217 | 15654 ft | 326 kts | 69° |
| 2026-04-26 20:04 | 4.83738 | -74.61129 | 15655 ft | 326 kts | 69° |
| 2026-04-26 20:05 | 4.84558 | -74.59010 | 15618 ft | 326 kts | 69° |
| 2026-04-26 20:05 | 4.85388 | -74.56868 | 15519 ft | 325 kts | 69° |
| 2026-04-26 20:05 | 4.86193 | -74.54780 | 15418 ft | 325 kts | 69° |
| 2026-04-26 20:05 | 4.87004 | -74.52671 | 15314 ft | 324 kts | 69° |
| 2026-04-26 20:06 | 4.87815 | -74.50565 | 15205 ft | 323 kts | 69° |
| 2026-04-26 20:06 | 4.88625 | -74.48460 | 15106 ft | 323 kts | 69° |
| 2026-04-26 20:06 | 4.89433 | -74.46363 | 15003 ft | 321 kts | 69° |
| 2026-04-26 20:06 | 4.90024 | -74.44253 | 14873 ft | 310 kts | 86° |
| 2026-04-26 20:07 | 4.89744 | -74.42160 | 14734 ft | 301 kts | 112° |
| 2026-04-26 20:07 | 4.88626 | -74.40435 | 14603 ft | 294 kts | 137° |
| 2026-04-26 20:07 | 4.86934 | -74.39304 | 14463 ft | 293 kts | 153° |
| 2026-04-26 20:07 | 4.85130 | -74.38372 | 14296 ft | 291 kts | 152° |
| 2026-04-26 20:08 | 4.83328 | -74.37439 | 14114 ft | 292 kts | 153° |
| 2026-04-26 20:08 | 4.81526 | -74.36501 | 13935 ft | 292 kts | 153° |
| 2026-04-26 20:08 | 4.79748 | -74.35584 | 13760 ft | 290 kts | 153° |
| 2026-04-26 20:08 | 4.77985 | -74.34680 | 13622 ft | 280 kts | 153° |
| 2026-04-26 20:09 | 4.76300 | -74.33782 | 13628 ft | 272 kts | 151° |
| 2026-04-26 20:09 | 4.74659 | -74.32824 | 13649 ft | 273 kts | 149° |
| 2026-04-26 20:09 | 4.73037 | -74.31840 | 13661 ft | 272 kts | 149° |
| 2026-04-26 20:09 | 4.71433 | -74.30860 | 13659 ft | 267 kts | 149° |
| 2026-04-26 20:10 | 4.69891 | -74.29915 | 13660 ft | 253 kts | 149° |
| 2026-04-26 20:10 | 4.68409 | -74.28999 | 13654 ft | 248 kts | 144° |
| 2026-04-26 20:10 | 4.67099 | -74.27871 | 13653 ft | 248 kts | 137° |
| 2026-04-26 20:10 | 4.65867 | -74.26741 | 13683 ft | 233 kts | 137° |
| 2026-04-26 20:11 | 4.64682 | -74.25656 | 13652 ft | 229 kts | 138° |
| 2026-04-26 20:11 | 4.63514 | -74.24586 | 13653 ft | 227 kts | 135° |
| 2026-04-26 20:11 | 4.62531 | -74.23341 | 13475 ft | 230 kts | 125° |
| 2026-04-26 20:12 | 4.60745 | -74.20748 | 12841 ft | 222 kts | 124° |
| 2026-04-26 20:12 | 4.59883 | -74.19486 | 12556 ft | 217 kts | 124° |
| 2026-04-26 20:12 | 4.59046 | -74.18261 | 12271 ft | 208 kts | 124° |
| 2026-04-26 20:12 | 4.58259 | -74.17099 | 12004 ft | 198 kts | 120° |
| 2026-04-26 20:13 | 4.57732 | -74.15839 | 11783 ft | 195 kts | 105° |
| 2026-04-26 20:13 | 4.57551 | -74.14497 | 11502 ft | 195 kts | 91° |
| 2026-04-26 20:13 | 4.57722 | -74.13149 | 11240 ft | 196 kts | 76° |
| 2026-04-26 20:13 | 4.58244 | -74.11883 | 10976 ft | 198 kts | 60° |
| 2026-04-26 20:14 | 4.59091 | -74.10795 | 10719 ft | 198 kts | 44° |
| 2026-04-26 20:14 | 4.60179 | -74.09978 | 10469 ft | 197 kts | 28° |
| 2026-04-26 20:14 | 4.61388 | -74.09481 | 10221 ft | 182 kts | 13° |
| 2026-04-26 20:14 | 4.62610 | -74.09296 | 9994 ft | 175 kts | 359° |
| 2026-04-26 20:15 | 4.63803 | -74.09404 | 9770 ft | 171 kts | 345° |
| 2026-04-26 20:15 | 4.64917 | -74.09781 | 9548 ft | 168 kts | 331° |
| 2026-04-26 20:15 | 4.65901 | -74.10388 | 9330 ft | 165 kts | 318° |
| 2026-04-26 20:15 | 4.66712 | -74.11183 | 9118 ft | 162 kts | 306° |
| 2026-04-26 20:16 | 4.67390 | -74.12080 | 8920 ft | 160 kts | 304° |
| 2026-04-26 20:16 | 4.68055 | -74.12958 | 8704 ft | 157 kts | 305° |
| 2026-04-26 20:16 | 4.68717 | -74.13835 | 8468 ft | 157 kts | 305° |
| 2026-04-26 20:16 | 4.69358 | -74.14678 | 8364 ft | 139 kts | 306° |
| 2026-04-26 20:17 | 4.69843 | -74.15322 | 8366 ft | 91 kts | 307° |
| 2026-04-26 20:17 | 4.70129 | -74.15698 | 8364 ft | 53 kts | 307° |
| 2026-04-26 20:17 | 4.70323 | -74.15955 | 8364 ft | 34 kts | 307° |
| 2026-04-26 20:17 | 4.70397 | -74.15993 | 8364 ft | 7 kts | 6° |
| 2026-04-26 20:18 | 4.70435 | -74.15954 | 8365 ft | 8 kts | 49° |
| 2026-04-26 20:18 | 4.70463 | -74.15928 | 8365 ft | 3 kts | 40° |
| 2026-04-26 20:18 | 4.70469 | -74.15923 | 8365 ft | 0 kts | 40° |
| 2026-04-26 20:18 | 4.70489 | -74.15908 | 8365 ft | 6 kts | 37° |
| 2026-04-26 20:19 | 4.70513 | -74.15883 | 8365 ft | 7 kts | 58° |
| 2026-04-26 20:19 | 4.70500 | -74.15829 | 8365 ft | 9 kts | 126° |
| 2026-04-26 20:19 | 4.70461 | -74.15777 | 8365 ft | 9 kts | 126° |
| 2026-04-26 20:19 | 4.70413 | -74.15714 | 8365 ft | 15 kts | 128° |
| 2026-04-26 20:20 | 4.70335 | -74.15612 | 8365 ft | 21 kts | 127° |
| 2026-04-26 20:20 | 4.70252 | -74.15500 | 8366 ft | 19 kts | 127° |
| 2026-04-26 20:20 | 4.70173 | -74.15396 | 8365 ft | 18 kts | 127° |
| 2026-04-26 20:20 | 4.70099 | -74.15300 | 8366 ft | 17 kts | 127° |
| 2026-04-26 20:21 | 4.70032 | -74.15210 | 8366 ft | 15 kts | 127° |
| 2026-04-26 20:21 | 4.69970 | -74.15128 | 8366 ft | 14 kts | 127° |
| 2026-04-26 20:21 | 4.69912 | -74.15052 | 8366 ft | 13 kts | 127° |
| 2026-04-26 20:21 | 4.69860 | -74.14984 | 8366 ft | 12 kts | 127° |
| 2026-04-26 20:22 | 4.69835 | -74.14945 | 8366 ft | 0 kts | 99° |
| 2026-04-26 20:22 | 4.69847 | -74.14938 | 8366 ft | 8 kts | 27° |
| 2026-04-26 20:22 | 4.69883 | -74.14915 | 8366 ft | 6 kts | 42° |
| 2026-04-26 20:22 | 4.69936 | -74.14866 | 8366 ft | 14 kts | 62° |